createdAt,value
2017-07-04T00:01:14.803Z,19.60
2017-07-04T00:03:43.923Z,19.60
2017-07-04T00:06:12.184Z,19.60
2017-07-04T00:08:40.473Z,19.60
2017-07-04T00:11:08.748Z,19.60
2017-07-04T00:13:37.032Z,19.70
2017-07-04T00:16:05.311Z,19.60
2017-07-04T00:18:33.574Z,19.60
2017-07-04T00:21:01.864Z,19.60
2017-07-04T00:23:30.128Z,19.60
2017-07-04T00:25:58.430Z,19.70
2017-07-04T00:28:26.707Z,19.70
2017-07-04T00:30:54.993Z,19.70
2017-07-04T00:33:24.028Z,19.60
2017-07-04T00:35:52.321Z,19.60
2017-07-04T00:38:20.593Z,19.60
2017-07-04T00:40:48.886Z,19.60
2017-07-04T00:43:17.160Z,19.70
2017-07-04T00:45:45.447Z,19.60
2017-07-04T00:48:13.715Z,19.60
2017-07-04T00:50:41.990Z,19.60
2017-07-04T00:53:10.275Z,19.60
2017-07-04T00:55:38.542Z,19.60
2017-07-04T00:58:06.831Z,19.70
2017-07-04T01:03:34.786Z,19.70
2017-07-04T01:06:03.057Z,19.70
2017-07-04T01:08:31.340Z,19.80
2017-07-04T01:10:59.615Z,19.70
2017-07-04T01:13:27.957Z,19.80
2017-07-04T01:15:56.231Z,19.80
2017-07-04T01:18:25.264Z,19.80
2017-07-04T01:20:53.560Z,19.70
2017-07-04T01:23:21.831Z,19.80
2017-07-04T01:25:50.115Z,19.70
2017-07-04T01:28:18.401Z,19.80
2017-07-04T01:30:46.684Z,19.80
2017-07-04T01:33:14.956Z,19.80
2017-07-04T01:35:43.239Z,19.90
2017-07-04T01:38:11.512Z,19.80
2017-07-04T01:40:39.812Z,19.80
2017-07-04T01:43:08.085Z,19.80
2017-07-04T01:45:36.363Z,19.90
2017-07-04T01:48:04.662Z,19.90
2017-07-04T01:50:33.705Z,20.00
2017-07-04T01:53:01.997Z,20.00
2017-07-04T01:55:30.260Z,20.00
2017-07-04T01:57:58.551Z,20.00
2017-07-04T02:00:26.828Z,20.00
2017-07-04T02:02:55.138Z,20.00
2017-07-04T02:05:23.435Z,20.00
2017-07-04T02:07:51.704Z,20.00
2017-07-04T02:10:20.001Z,20.10
2017-07-04T02:12:48.270Z,20.00
2017-07-04T02:15:16.572Z,20.00
2017-07-04T02:17:44.852Z,20.00
2017-07-04T02:20:13.138Z,20.00
2017-07-04T02:22:41.408Z,20.00
2017-07-04T02:25:09.700Z,20.00
2017-07-04T02:27:37.976Z,20.00
2017-07-04T02:30:06.264Z,20.00
2017-07-04T02:32:34.554Z,20.00
2017-07-04T02:35:02.860Z,20.00
2017-07-04T02:37:31.152Z,20.00
2017-07-04T02:39:59.427Z,20.10
2017-07-04T02:42:27.716Z,20.10
2017-07-04T02:44:55.997Z,20.10
2017-07-04T02:47:24.304Z,20.10
2017-07-04T02:49:52.592Z,20.10
2017-07-04T02:52:20.877Z,20.10
2017-07-04T02:54:49.176Z,20.10
2017-07-04T02:57:17.440Z,20.10
2017-07-04T02:59:45.732Z,20.10
2017-07-04T03:02:14.001Z,20.10
2017-07-04T03:04:42.287Z,20.10
2017-07-04T03:07:10.566Z,20.10
2017-07-04T03:09:38.857Z,20.10
2017-07-04T03:12:07.128Z,20.00
2017-07-04T03:14:35.412Z,20.00
2017-07-04T03:17:03.684Z,20.00
2017-07-04T03:19:31.957Z,20.10
2017-07-04T03:22:00.237Z,20.10
2017-07-04T03:24:28.517Z,20.00
2017-07-04T03:26:56.819Z,20.00
2017-07-04T03:29:25.119Z,19.90
2017-07-04T03:31:53.399Z,19.90
2017-07-04T03:34:21.672Z,19.80
2017-07-04T03:36:49.975Z,19.70
2017-07-04T03:39:19.069Z,19.60
2017-07-04T03:41:47.324Z,19.60
2017-07-04T03:44:15.619Z,19.60
2017-07-04T03:46:43.885Z,19.50
2017-07-04T03:49:12.211Z,19.40
2017-07-04T03:51:40.492Z,19.40
2017-07-04T03:54:08.776Z,19.40
2017-07-04T03:56:37.048Z,19.30
2017-07-04T03:59:05.363Z,19.30
2017-07-04T04:01:33.627Z,19.30
2017-07-04T04:04:01.919Z,19.20
2017-07-04T04:06:30.195Z,19.30
2017-07-04T04:08:58.474Z,19.30
2017-07-04T04:11:26.772Z,19.20
2017-07-04T04:13:55.037Z,19.20
2017-07-04T04:16:23.323Z,19.10
2017-07-04T04:18:52.369Z,19.10
2017-07-04T04:21:20.663Z,19.10
2017-07-04T04:23:48.940Z,19.10
2017-07-04T04:26:17.244Z,19.10
2017-07-04T04:28:45.512Z,19.20
2017-07-04T04:31:13.805Z,19.20
2017-07-04T04:33:42.084Z,19.30
2017-07-04T04:36:11.119Z,19.40
2017-07-04T04:38:39.421Z,19.40
2017-07-04T04:41:07.687Z,19.40
2017-07-04T04:43:35.972Z,19.50
2017-07-04T04:46:04.239Z,19.60
2017-07-04T04:48:32.532Z,19.60
2017-07-04T04:51:00.819Z,19.60
2017-07-04T04:53:29.891Z,19.70
2017-07-04T04:55:58.160Z,19.70
2017-07-04T04:58:26.458Z,19.70
2017-07-04T05:00:54.728Z,19.70
2017-07-04T05:03:23.004Z,19.70
2017-07-04T05:05:51.313Z,19.80
2017-07-04T05:08:19.583Z,19.80
2017-07-04T05:10:48.637Z,20.00
2017-07-04T05:13:16.926Z,20.10
2017-07-04T05:15:45.212Z,20.30
2017-07-04T05:18:13.488Z,20.70
2017-07-04T05:20:41.773Z,21.20
2017-07-04T05:23:10.048Z,21.60
2017-07-04T05:25:38.349Z,21.70
2017-07-04T05:28:07.383Z,22.10
2017-07-04T05:30:35.657Z,22.00
2017-07-04T05:33:03.950Z,22.10
2017-07-04T05:35:32.224Z,22.30
2017-07-04T05:38:00.511Z,22.30
2017-07-04T05:40:28.802Z,22.30
2017-07-04T05:42:57.092Z,22.30
2017-07-04T05:45:26.139Z,22.20
2017-07-04T05:47:54.437Z,22.20
2017-07-04T05:50:22.712Z,22.20
2017-07-04T05:52:51.024Z,22.20
2017-07-04T05:55:19.303Z,22.20
2017-07-04T05:57:47.645Z,22.30
2017-07-04T06:00:15.900Z,22.20
2017-07-04T06:02:44.183Z,22.30
2017-07-04T06:05:12.476Z,22.30
2017-07-04T06:07:40.753Z,22.30
2017-07-04T06:10:09.059Z,22.30
2017-07-04T06:12:37.332Z,22.40
2017-07-04T06:15:05.631Z,22.50
2017-07-04T06:17:33.895Z,22.40
2017-07-04T06:20:02.199Z,22.30
2017-07-04T06:22:30.475Z,22.10
2017-07-04T06:24:58.755Z,22.00
2017-07-04T06:27:27.046Z,22.00
2017-07-04T06:29:55.325Z,21.80
2017-07-04T06:32:23.612Z,21.80
2017-07-04T06:34:51.890Z,21.60
2017-07-04T06:37:21.071Z,21.60
2017-07-04T06:39:49.343Z,21.60
2017-07-04T06:42:17.645Z,21.70
2017-07-04T06:44:45.920Z,21.90
2017-07-04T06:47:14.197Z,22.00
2017-07-04T06:49:42.494Z,22.30
2017-07-04T06:52:10.768Z,22.60
2017-07-04T06:54:39.052Z,23.00
2017-07-04T06:57:07.339Z,23.30
2017-07-04T06:59:35.642Z,23.60
2017-07-04T07:02:03.932Z,23.80
2017-07-04T07:04:32.253Z,24.10
2017-07-04T07:07:00.527Z,24.30
2017-07-04T07:09:28.805Z,24.60
2017-07-04T07:11:57.102Z,24.90
2017-07-04T07:14:25.384Z,25.10
2017-07-04T07:16:54.457Z,25.80
2017-07-04T07:19:22.732Z,25.70
2017-07-04T07:21:51.026Z,25.50
2017-07-04T07:24:19.311Z,25.50
2017-07-04T07:26:48.372Z,25.50
2017-07-04T07:29:16.661Z,25.50
2017-07-04T07:31:44.968Z,25.50
2017-07-04T07:34:13.244Z,25.70
2017-07-04T07:36:41.528Z,25.70
2017-07-04T07:39:09.821Z,25.80
2017-07-04T07:41:38.108Z,26.10
2017-07-04T07:44:06.416Z,25.70
2017-07-04T07:46:34.691Z,25.70
2017-07-04T07:49:02.990Z,25.70
2017-07-04T07:51:31.276Z,25.90
2017-07-04T07:54:00.348Z,25.80
2017-07-04T07:56:28.620Z,25.80
2017-07-04T07:58:56.941Z,25.90
2017-07-04T08:01:25.994Z,25.90
2017-07-04T08:03:54.266Z,25.90
2017-07-04T08:06:22.569Z,25.60
2017-07-04T08:08:50.850Z,25.50
2017-07-04T08:11:19.150Z,25.50
2017-07-04T08:13:48.193Z,25.50
2017-07-04T08:16:16.497Z,25.40
2017-07-04T08:18:44.770Z,25.50
2017-07-04T08:21:13.066Z,25.60
2017-07-04T08:23:41.349Z,25.60
2017-07-04T08:26:09.652Z,25.70
2017-07-04T08:28:37.933Z,25.90
2017-07-04T08:31:06.250Z,26.10
2017-07-04T08:33:34.528Z,26.30
2017-07-04T08:36:02.804Z,26.40
2017-07-04T08:38:31.108Z,26.50
2017-07-04T08:41:00.162Z,26.40
2017-07-04T08:43:28.448Z,26.40
2017-07-04T08:45:56.736Z,26.60
2017-07-04T08:48:25.039Z,26.50
2017-07-04T08:50:54.080Z,26.50
2017-07-04T08:53:22.417Z,26.50
2017-07-04T08:55:51.468Z,26.30
2017-07-04T08:58:19.768Z,26.40
2017-07-04T09:00:48.063Z,26.30
2017-07-04T09:03:17.155Z,25.70
2017-07-04T09:05:46.216Z,25.60
2017-07-04T09:08:14.496Z,25.60
2017-07-04T09:10:42.805Z,25.60
2017-07-04T09:13:11.848Z,25.90
2017-07-04T09:15:40.148Z,25.90
2017-07-04T09:18:08.425Z,25.80
2017-07-04T09:20:36.715Z,25.80
2017-07-04T09:23:04.997Z,25.70
2017-07-04T09:25:33.287Z,25.70
2017-07-04T09:28:02.344Z,25.70
2017-07-04T09:30:30.656Z,25.70
2017-07-04T09:32:59.703Z,25.60
2017-07-04T09:35:27.992Z,25.60
2017-07-04T09:37:56.293Z,25.50
2017-07-04T09:40:24.581Z,25.40
2017-07-04T09:42:53.640Z,25.30
2017-07-04T09:45:21.922Z,25.30
2017-07-04T09:47:50.218Z,25.30
2017-07-04T09:50:18.496Z,25.50
2017-07-04T09:52:46.789Z,25.70
2017-07-04T09:55:15.833Z,25.70
2017-07-04T09:57:44.123Z,25.70
2017-07-04T10:00:12.410Z,25.70
2017-07-04T10:02:40.699Z,25.70
2017-07-04T10:05:09.005Z,25.70
2017-07-04T10:07:38.048Z,25.80
2017-07-04T10:10:06.340Z,25.80
2017-07-04T10:12:34.626Z,25.70
2017-07-04T10:15:02.915Z,25.70
2017-07-04T10:17:31.964Z,25.70
2017-07-04T10:20:00.283Z,25.80
2017-07-04T10:22:29.336Z,26.20
2017-07-04T10:24:57.637Z,26.20
2017-07-04T10:27:25.920Z,26.10
2017-07-04T10:29:54.204Z,25.90
2017-07-04T10:32:22.500Z,26.00
2017-07-04T10:34:51.547Z,25.90
2017-07-04T10:37:19.852Z,25.90
2017-07-04T10:39:48.141Z,25.90
2017-07-04T10:42:16.436Z,26.00
2017-07-04T10:44:44.725Z,26.10
2017-07-04T10:47:13.025Z,26.20
2017-07-04T10:49:41.311Z,26.20
2017-07-04T10:52:09.620Z,26.20
2017-07-04T10:54:37.896Z,26.20
2017-07-04T10:57:06.192Z,26.30
2017-07-04T10:59:35.240Z,26.10
2017-07-04T11:02:03.553Z,26.10
2017-07-04T11:04:32.627Z,25.90
2017-07-04T11:07:00.900Z,25.90
2017-07-04T11:09:29.196Z,26.10
2017-07-04T11:11:57.489Z,26.20
2017-07-04T11:14:25.788Z,26.10
2017-07-04T11:16:54.076Z,26.40
2017-07-04T11:19:22.372Z,26.40
2017-07-04T11:21:50.648Z,26.30
2017-07-04T11:24:18.939Z,26.40
2017-07-04T11:26:47.220Z,26.40
2017-07-04T11:29:15.533Z,26.40
2017-07-04T11:31:44.587Z,26.50
2017-07-04T11:34:12.868Z,26.40
2017-07-04T11:36:41.164Z,26.60
2017-07-04T11:39:09.454Z,26.60
2017-07-04T11:41:37.741Z,26.70
2017-07-04T11:44:06.017Z,26.80
2017-07-04T11:46:34.311Z,26.80
2017-07-04T11:49:02.588Z,26.70
2017-07-04T11:51:30.891Z,26.70
2017-07-04T11:53:59.183Z,26.80
2017-07-04T11:56:27.500Z,26.90
2017-07-04T11:58:56.551Z,26.90
2017-07-04T12:01:24.832Z,26.80
2017-07-04T12:03:53.136Z,26.70
2017-07-04T12:06:21.415Z,26.70
2017-07-04T12:08:49.724Z,26.70
2017-07-04T12:11:18.013Z,26.60
2017-07-04T12:13:46.305Z,26.60
2017-07-04T12:16:14.582Z,26.60
2017-07-04T12:18:42.898Z,26.50
2017-07-04T12:21:11.196Z,26.70
2017-07-04T12:23:40.236Z,27.10
2017-07-04T12:26:08.535Z,27.10
2017-07-04T12:28:36.809Z,27.20
2017-07-04T12:31:05.119Z,27.20
2017-07-04T12:33:34.168Z,27.10
2017-07-04T12:36:02.468Z,27.10
2017-07-04T12:38:30.751Z,27.10
2017-07-04T12:40:59.053Z,27.00
2017-07-04T12:43:27.337Z,27.00
2017-07-04T12:45:55.647Z,27.10
2017-07-04T12:48:23.925Z,27.20
2017-07-04T12:50:52.202Z,27.30
2017-07-04T12:53:20.503Z,27.10
2017-07-04T12:55:48.812Z,26.90
2017-07-04T12:58:17.117Z,27.00
2017-07-04T13:00:45.398Z,27.00
2017-07-04T13:03:13.691Z,27.10
2017-07-04T13:05:41.972Z,27.00
2017-07-04T13:08:10.260Z,27.10
2017-07-04T13:10:38.552Z,27.00
2017-07-04T13:13:06.868Z,27.10
2017-07-04T13:15:35.152Z,27.00
2017-07-04T13:18:03.443Z,26.80
2017-07-04T13:20:31.738Z,26.80
2017-07-04T13:23:00.029Z,26.90
2017-07-04T13:25:28.332Z,27.00
2017-07-04T13:27:57.373Z,27.00
2017-07-04T13:30:25.679Z,27.00
2017-07-04T13:32:53.961Z,27.00
2017-07-04T13:35:22.265Z,27.00
2017-07-04T13:37:51.352Z,27.20
2017-07-04T13:40:19.650Z,27.10
2017-07-04T13:42:47.937Z,27.30
2017-07-04T13:45:16.252Z,27.10
2017-07-04T13:47:44.593Z,27.00
2017-07-04T13:50:12.841Z,27.00
2017-07-04T13:52:41.904Z,27.00
2017-07-04T13:55:10.184Z,27.00
2017-07-04T13:57:38.477Z,27.10
2017-07-04T14:00:06.784Z,27.20
2017-07-04T14:02:35.848Z,27.20
2017-07-04T14:05:04.120Z,27.20
2017-07-04T14:07:32.426Z,27.00
2017-07-04T14:10:00.708Z,27.00
2017-07-04T14:12:29.783Z,27.00
2017-07-04T14:14:58.131Z,27.00
2017-07-04T14:17:26.443Z,27.10
2017-07-04T14:19:55.501Z,27.40
2017-07-04T14:22:23.788Z,27.40
2017-07-04T14:24:52.088Z,27.50
2017-07-04T14:27:20.361Z,27.60
2017-07-04T14:29:48.656Z,27.60
2017-07-04T14:32:16.944Z,27.40
2017-07-04T14:34:45.228Z,27.40
2017-07-04T14:37:13.527Z,27.30
2017-07-04T14:39:41.817Z,27.30
2017-07-04T14:42:10.109Z,27.40
2017-07-04T14:44:38.409Z,27.40
2017-07-04T14:47:06.751Z,27.30
2017-07-04T14:49:35.077Z,27.10
2017-07-04T14:52:04.136Z,27.00
2017-07-04T14:54:32.420Z,27.00
2017-07-04T14:57:00.728Z,27.20
2017-07-04T14:59:29.012Z,27.10
2017-07-04T15:01:58.077Z,27.00
2017-07-04T15:04:26.361Z,26.90
2017-07-04T15:06:54.661Z,27.00
2017-07-04T15:09:22.937Z,27.00
2017-07-04T15:11:52.031Z,27.00
2017-07-04T15:14:21.072Z,27.00
2017-07-04T15:16:49.394Z,27.00
2017-07-04T15:19:17.684Z,27.00
2017-07-04T15:21:46.784Z,27.20
2017-07-04T15:24:15.848Z,27.30
2017-07-04T15:26:44.121Z,27.30
2017-07-04T15:29:12.417Z,27.40
2017-07-04T15:31:40.713Z,27.30
2017-07-04T15:34:09.800Z,27.40
2017-07-04T15:36:38.086Z,27.30
2017-07-04T15:39:07.148Z,27.30
2017-07-04T15:41:35.427Z,27.30
2017-07-04T15:44:03.724Z,27.30
2017-07-04T15:46:32.008Z,27.30
2017-07-04T15:49:00.319Z,27.40
2017-07-04T15:51:28.592Z,27.50
2017-07-04T15:53:56.871Z,27.40
2017-07-04T15:56:25.177Z,27.30
2017-07-04T15:58:53.461Z,27.20
2017-07-04T16:01:21.761Z,27.20
2017-07-04T16:03:50.047Z,27.30
2017-07-04T16:06:19.111Z,27.30
2017-07-04T16:08:47.397Z,27.30
2017-07-04T16:11:15.701Z,27.40
2017-07-04T16:13:44.736Z,27.40
2017-07-04T16:16:13.033Z,27.40
2017-07-04T16:18:41.312Z,27.50
2017-07-04T16:21:09.633Z,27.50
2017-07-04T16:23:37.916Z,27.30
2017-07-04T16:26:06.201Z,27.30
2017-07-04T16:28:34.501Z,27.30
2017-07-04T16:31:02.789Z,27.20
2017-07-04T16:33:31.090Z,27.20
2017-07-04T16:35:59.365Z,27.10
2017-07-04T16:38:27.663Z,27.00
2017-07-04T16:40:56.728Z,27.00
2017-07-04T16:43:25.066Z,27.00
2017-07-04T16:45:53.370Z,27.00
2017-07-04T16:48:21.666Z,27.20
2017-07-04T16:50:49.967Z,27.20
2017-07-04T16:53:19.408Z,27.20
2017-07-04T16:55:47.688Z,27.10
2017-07-04T16:58:15.984Z,27.10
2017-07-04T17:00:44.327Z,27.10
2017-07-04T17:03:12.610Z,27.00
2017-07-04T17:05:40.903Z,27.00
2017-07-04T17:08:09.189Z,27.10
2017-07-04T17:10:37.502Z,27.00
2017-07-04T17:13:05.780Z,27.00
2017-07-04T17:15:34.075Z,27.00
2017-07-04T17:18:03.120Z,26.90
2017-07-04T17:20:31.495Z,26.90
2017-07-04T17:22:59.756Z,27.00
2017-07-04T17:25:28.069Z,26.90
2017-07-04T17:27:56.413Z,26.90
2017-07-04T17:30:24.758Z,26.90
2017-07-04T17:32:53.075Z,26.90
2017-07-04T17:35:21.368Z,26.80
2017-07-04T17:37:49.764Z,26.80
2017-07-04T17:40:18.036Z,26.80
2017-07-04T17:42:46.344Z,26.80
2017-07-04T17:45:15.395Z,26.70
2017-07-04T17:47:43.684Z,26.70
2017-07-04T17:50:11.963Z,26.70
2017-07-04T17:52:40.259Z,26.70
2017-07-04T17:55:08.586Z,26.60
2017-07-04T17:57:36.919Z,26.60
2017-07-04T18:00:05.207Z,26.60
2017-07-04T18:02:34.271Z,26.60
2017-07-04T18:05:02.584Z,26.60
2017-07-04T18:07:31.659Z,26.70
2017-07-04T18:09:59.957Z,26.70
2017-07-04T18:12:29.002Z,26.70
2017-07-04T18:14:57.288Z,26.70
2017-07-04T18:17:25.572Z,26.70
2017-07-04T18:19:53.885Z,26.70
2017-07-04T18:22:22.155Z,26.60
2017-07-04T18:24:50.461Z,26.70
2017-07-04T18:27:18.735Z,26.60
2017-07-04T18:29:47.032Z,26.60
2017-07-04T18:32:15.311Z,26.70
2017-07-04T18:34:43.632Z,26.70
2017-07-04T18:37:12.689Z,26.60
2017-07-04T18:39:40.966Z,26.60
2017-07-04T18:42:09.264Z,26.60
2017-07-04T18:44:37.549Z,26.50
2017-07-04T18:47:05.895Z,26.50
2017-07-04T18:49:34.190Z,26.40
2017-07-04T18:52:02.479Z,26.30
2017-07-04T18:54:30.752Z,26.20
2017-07-04T18:56:59.064Z,26.20
2017-07-04T18:59:28.112Z,26.20
2017-07-04T19:01:56.407Z,26.20
2017-07-04T19:04:24.689Z,26.20
2017-07-04T19:06:53.010Z,26.20
2017-07-04T19:09:21.283Z,26.10
2017-07-04T19:11:49.568Z,25.90
2017-07-04T19:14:17.854Z,25.80
2017-07-04T19:16:46.129Z,25.70
2017-07-04T19:19:14.433Z,25.70
2017-07-04T19:21:42.756Z,25.60
2017-07-04T19:24:11.820Z,25.40
2017-07-04T19:26:40.088Z,25.30
2017-07-04T19:29:08.399Z,25.30
2017-07-04T19:31:37.459Z,25.20
2017-07-04T19:34:05.760Z,25.30
2017-07-04T19:36:34.037Z,25.20
2017-07-04T19:39:02.356Z,25.20
2017-07-04T19:41:30.629Z,25.20
2017-07-04T19:43:58.912Z,25.10
2017-07-04T19:46:27.223Z,25.10
2017-07-04T19:48:55.538Z,25.10
2017-07-04T19:51:23.836Z,25.00
2017-07-04T19:53:52.162Z,25.00
2017-07-04T19:56:20.447Z,24.90
2017-07-04T19:58:48.726Z,24.90
2017-07-04T20:01:17.019Z,24.80
2017-07-04T20:03:45.288Z,24.70
2017-07-04T20:06:13.603Z,24.60
2017-07-04T20:08:41.868Z,24.50
2017-07-04T20:11:10.912Z,24.30
2017-07-04T20:13:39.229Z,24.30
2017-07-04T20:16:08.269Z,24.20
2017-07-04T20:18:36.678Z,24.10
2017-07-04T20:21:04.944Z,24.10
2017-07-04T20:23:33.269Z,24.00
2017-07-04T20:26:02.320Z,23.90
2017-07-04T20:28:30.617Z,23.90
2017-07-04T20:30:58.884Z,23.80
2017-07-04T20:33:27.181Z,23.80
2017-07-04T20:35:55.452Z,23.70
2017-07-04T20:38:23.756Z,23.60
2017-07-04T20:40:52.040Z,23.60
2017-07-04T20:43:20.304Z,23.50
2017-07-04T20:45:48.601Z,23.40
2017-07-04T20:48:16.881Z,23.30
2017-07-04T20:50:45.225Z,23.30
2017-07-04T20:53:13.486Z,23.10
2017-07-04T20:55:41.780Z,23.00
2017-07-04T20:58:10.063Z,22.90
2017-07-04T21:00:38.378Z,22.90
2017-07-04T21:03:06.656Z,22.90
2017-07-04T21:05:34.927Z,22.80
2017-07-04T21:08:03.223Z,22.80
2017-07-04T21:10:31.499Z,22.80
2017-07-04T21:12:59.788Z,22.70
2017-07-04T21:15:28.068Z,22.70
2017-07-04T21:17:56.421Z,22.60
2017-07-04T21:20:24.701Z,22.50
2017-07-04T21:22:53.001Z,22.50
2017-07-04T21:25:21.281Z,22.40
2017-07-04T21:27:49.568Z,22.30
2017-07-04T21:30:17.846Z,22.30
2017-07-04T21:32:46.160Z,22.20
2017-07-04T21:35:14.454Z,22.10
2017-07-04T21:37:42.716Z,22.10
2017-07-04T21:40:11.014Z,22.10
2017-07-04T21:42:39.292Z,22.00
2017-07-04T21:45:07.616Z,22.00
2017-07-04T21:47:35.901Z,22.00
2017-07-04T21:50:04.194Z,21.90
2017-07-04T21:52:33.248Z,21.80
2017-07-04T21:55:01.543Z,21.80
2017-07-04T21:57:29.848Z,21.70
2017-07-04T21:59:58.158Z,21.70
2017-07-04T22:02:26.437Z,21.60
2017-07-04T22:04:54.724Z,21.60
2017-07-04T22:07:23.020Z,21.60
2017-07-04T22:09:51.294Z,21.50
2017-07-04T22:12:19.600Z,21.50
2017-07-04T22:14:48.651Z,21.30
2017-07-04T22:17:16.943Z,21.20
2017-07-04T22:19:45.220Z,21.20
2017-07-04T22:22:13.520Z,21.10
2017-07-04T22:24:42.573Z,21.00
2017-07-04T22:27:10.866Z,21.00
2017-07-04T22:29:39.159Z,21.00
2017-07-04T22:32:07.453Z,21.10
2017-07-04T22:34:35.748Z,21.10
2017-07-04T22:37:04.024Z,21.10
2017-07-04T22:39:32.323Z,21.10
2017-07-04T22:42:00.597Z,21.10
2017-07-04T22:44:28.891Z,20.90
2017-07-04T22:46:57.183Z,20.90
2017-07-04T22:49:25.472Z,20.90
2017-07-04T22:51:53.759Z,20.90
2017-07-04T22:54:22.072Z,20.80
2017-07-04T22:56:50.343Z,20.80
2017-07-04T22:59:18.613Z,20.80
2017-07-04T23:01:46.898Z,20.80
2017-07-04T23:04:15.186Z,20.70
2017-07-04T23:06:43.480Z,20.60
2017-07-04T23:09:11.763Z,20.60
2017-07-04T23:11:40.046Z,20.50
2017-07-04T23:14:08.321Z,20.40
2017-07-04T23:16:36.666Z,20.40
2017-07-04T23:19:04.937Z,20.40
2017-07-04T23:21:33.204Z,20.40
2017-07-04T23:24:02.275Z,20.30
2017-07-04T23:26:30.551Z,20.30
2017-07-04T23:28:58.852Z,20.30
2017-07-04T23:31:27.897Z,20.30
2017-07-04T23:33:56.195Z,20.20
2017-07-04T23:36:24.548Z,20.20
2017-07-04T23:38:52.852Z,20.10
2017-07-04T23:41:21.125Z,20.10
2017-07-04T23:43:49.429Z,20.10
2017-07-04T23:46:18.483Z,20.00
2017-07-04T23:48:46.756Z,19.90
2017-07-04T23:51:15.059Z,19.90
2017-07-04T23:53:43.324Z,19.90
2017-07-04T23:56:11.616Z,19.90
2017-07-04T23:58:39.885Z,19.90
